Time;durP1;ratioP1;P1;durP2;ratioP2;P2;SDS_P1;SDS_P2;PMS_P1;PMS_P2;Temp;Humidity;BMP_temperature;BMP_pressure;BME280_temperature;BME280_humidity;BME280_pressure;Samples;Min_cycle;Max_cycle;Signal;HPM_P1;HPM_P2
2021/08/25 00:01:58;;;;;;;16.83;9.70;;;14.00;99.90;;;;;;5055069;28;20075;-81
2021/08/25 00:04:24;;;;;;;14.00;9.95;;;14.00;99.90;;;;;;5063143;28;20072;-80
2021/08/25 00:06:49;;;;;;;15.23;10.15;;;14.10;99.90;;;;;;5059869;28;20083;-79
2021/08/25 00:09:15;;;;;;;17.20;10.32;;;14.00;99.90;;;;;;5060664;28;20475;-80
2021/08/25 00:11:41;;;;;;;16.83;12.00;;;13.90;99.90;;;;;;5045131;28;20041;-80
2021/08/25 00:14:06;;;;;;;13.98;10.23;;;13.80;99.90;;;;;;5062537;28;20036;-80
2021/08/25 00:16:32;;;;;;;21.60;13.25;;;13.80;99.90;;;;;;5064431;28;20112;-80
2021/08/25 00:18:57;;;;;;;17.70;10.93;;;13.80;99.90;;;;;;5060216;28;20402;-80
2021/08/25 00:21:23;;;;;;;19.00;12.68;;;14.00;99.90;;;;;;5042659;28;20585;-80
2021/08/25 00:23:49;;;;;;;14.32;10.18;;;14.00;99.90;;;;;;5039752;28;20890;-80
2021/08/25 00:26:14;;;;;;;18.13;12.75;;;13.90;99.90;;;;;;5059365;28;20040;-78
2021/08/25 00:28:40;;;;;;;24.27;15.88;;;13.90;99.90;;;;;;5060930;28;20033;-79
2021/08/25 00:31:06;;;;;;;29.42;15.77;;;14.00;99.90;;;;;;5047247;28;20129;-79
2021/08/25 00:33:31;;;;;;;22.75;14.85;;;14.00;99.90;;;;;;5061000;28;20490;-78
2021/08/25 00:35:57;;;;;;;16.85;12.30;;;14.00;99.90;;;;;;5062424;28;20067;-79
2021/08/25 00:38:22;;;;;;;18.05;11.38;;;14.00;99.90;;;;;;5062743;28;20075;-79
2021/08/25 00:40:48;;;;;;;24.73;15.40;;;14.00;99.90;;;;;;5064586;28;20037;-78
2021/08/25 00:43:14;;;;;;;15.30;10.40;;;14.00;99.90;;;;;;5066907;28;20063;-79
2021/08/25 00:45:41;;;;;;;18.92;13.23;;;14.00;99.90;;;;;;5063910;28;20044;-77
2021/08/25 00:48:08;;;;;;;13.52;11.00;;;13.90;99.90;;;;;;5067653;28;20048;-79
2021/08/25 00:50:37;;;;;;;16.35;10.57;;;13.90;99.90;;;;;;5068587;28;20062;-79
2021/08/25 00:53:03;;;;;;;14.45;10.45;;;13.90;99.90;;;;;;5064553;28;20040;-78
2021/08/25 00:55:31;;;;;;;16.63;12.48;;;13.80;99.90;;;;;;5065346;28;20056;-78
2021/08/25 00:58:02;;;;;;;25.75;17.17;;;13.80;99.90;;;;;;5048381;28;20353;-78
2021/08/25 01:00:27;;;;;;;25.70;17.65;;;13.80;99.90;;;;;;5068864;28;20096;-79
2021/08/25 01:03:15;;;;;;;34.90;18.15;;;13.80;99.90;;;;;;5065473;28;20115;-79
2021/08/25 01:05:42;;;;;;;26.60;18.88;;;13.90;99.90;;;;;;5069264;28;20048;-78
2021/08/25 01:08:10;;;;;;;56.63;17.92;;;13.90;99.90;;;;;;5060159;28;20688;-79
2021/08/25 01:10:36;;;;;;;131.88;20.25;;;13.90;99.90;;;;;;5050738;28;20084;-79
2021/08/25 01:13:04;;;;;;;64.07;18.67;;;13.90;99.90;;;;;;5068078;28;20086;-78
2021/08/25 01:15:34;;;;;;;21.65;16.15;;;13.90;99.90;;;;;;5064408;28;20037;-78
2021/08/25 01:18:09;;;;;;;38.35;16.63;;;14.00;99.90;;;;;;5068052;28;20076;-79
2021/08/25 01:20:35;;;;;;;17.25;14.35;;;14.00;99.90;;;;;;5049252;28;20045;-79
2021/08/25 01:23:01;;;;;;;21.90;14.38;;;14.00;99.90;;;;;;5064406;28;20044;-78
2021/08/25 01:25:33;;;;;;;17.00;13.27;;;14.10;99.90;;;;;;5065685;28;20052;-79
2021/08/25 01:28:05;;;;;;;19.88;12.38;;;14.10;99.90;;;;;;5047910;28;20074;-78
2021/08/25 01:30:34;;;;;;;11.93;10.65;;;14.00;99.90;;;;;;5065200;28;20071;-78
2021/08/25 01:33:00;;;;;;;15.88;12.02;;;14.00;99.90;;;;;;5061184;28;20045;-78
2021/08/25 01:35:40;;;;;;;18.83;12.68;;;14.10;99.90;;;;;;5065072;28;20040;-78
2021/08/25 01:38:06;;;;;;;14.85;11.35;;;14.00;99.90;;;;;;5081001;28;20115;-79
2021/08/25 01:40:36;;;;;;;20.25;11.68;;;13.90;99.90;;;;;;5064235;28;20079;-78
2021/08/25 01:43:03;;;;;;;15.25;9.88;;;13.90;99.90;;;;;;5066949;28;20048;-78
2021/08/25 01:45:29;;;;;;;10.15;8.65;;;13.90;99.90;;;;;;5048749;28;20078;-78
2021/08/25 01:47:55;;;;;;;10.00;7.90;;;13.90;99.90;;;;;;5061229;28;20053;-78
2021/08/25 01:50:21;;;;;;;12.70;7.43;;;13.90;99.90;;;;;;5044350;28;20468;-79
2021/08/25 01:52:46;;;;;;;13.32;9.57;;;13.80;99.90;;;;;;5058257;28;20060;-79
2021/08/25 01:55:12;;;;;;;13.15;8.73;;;13.80;99.90;;;;;;5064014;28;20040;-78
2021/08/25 01:57:38;;;;;;;15.25;11.88;;;13.80;99.90;;;;;;5048382;28;20039;-79
2021/08/25 02:00:05;;;;;;;13.80;9.32;;;13.80;99.90;;;;;;5062359;28;20395;-78
2021/08/25 02:02:31;;;;;;;14.05;9.00;;;13.80;99.90;;;;;;5049531;28;20040;-78
2021/08/25 02:04:56;;;;;;;11.52;7.90;;;13.80;99.90;;;;;;5072162;28;20039;-78
2021/08/25 02:07:22;;;;;;;9.32;7.18;;;13.80;99.90;;;;;;5054422;28;20090;-79
2021/08/25 02:09:48;;;;;;;7.85;7.03;;;13.80;99.90;;;;;;5071494;28;20128;-78
2021/08/25 02:12:13;;;;;;;9.70;7.07;;;13.70;99.90;;;;;;5068781;28;20040;-78
2021/08/25 02:14:39;;;;;;;7.65;6.22;;;13.70;99.90;;;;;;5072831;28;20046;-78
2021/08/25 02:17:06;;;;;;;10.15;5.85;;;13.70;99.90;;;;;;5053489;28;20048;-78
2021/08/25 02:19:33;;;;;;;8.35;7.32;;;13.70;99.90;;;;;;5056861;28;20066;-79
2021/08/25 02:21:59;;;;;;;10.63;7.68;;;13.60;99.90;;;;;;5070000;28;20045;-78
2021/08/25 02:24:24;;;;;;;8.65;6.78;;;13.60;99.90;;;;;;5047141;28;20060;-78
2021/08/25 02:26:50;;;;;;;6.78;6.07;;;13.50;99.90;;;;;;5050760;28;20386;-78
2021/08/25 02:29:16;;;;;;;10.50;6.28;;;13.60;99.90;;;;;;5064606;28;20051;-78
2021/08/25 02:31:42;;;;;;;7.38;5.70;;;13.50;99.90;;;;;;5066589;28;20092;-78
2021/08/25 02:34:07;;;;;;;9.00;5.90;;;13.50;99.90;;;;;;5052762;28;20129;-79
2021/08/25 02:36:33;;;;;;;9.55;5.70;;;13.40;99.90;;;;;;5053080;28;20048;-79
2021/08/25 02:38:59;;;;;;;11.40;7.95;;;13.50;99.90;;;;;;5053383;28;20485;-79
2021/08/25 02:41:25;;;;;;;10.77;7.55;;;13.40;99.90;;;;;;5066496;28;20032;-79
2021/08/25 02:43:51;;;;;;;15.60;10.25;;;13.30;99.90;;;;;;5055054;28;20037;-79
2021/08/25 02:46:17;;;;;;;9.85;6.45;;;13.40;99.90;;;;;;5075241;28;20051;-76
2021/08/25 02:48:43;;;;;;;8.18;6.72;;;13.40;99.90;;;;;;5070706;28;20054;-78
2021/08/25 02:51:09;;;;;;;17.80;9.85;;;13.30;99.90;;;;;;5082715;28;20036;-78
2021/08/25 02:53:34;;;;;;;14.23;9.77;;;13.30;99.90;;;;;;5063213;28;20051;-78
2021/08/25 02:56:00;;;;;;;20.13;11.45;;;13.40;99.90;;;;;;5082376;28;20033;-78
2021/08/25 02:58:26;;;;;;;17.65;10.73;;;13.40;99.90;;;;;;5086326;28;20064;-78
2021/08/25 03:00:51;;;;;;;22.20;12.25;;;13.40;99.90;;;;;;5085306;28;20099;-78
2021/08/25 03:03:17;;;;;;;20.67;11.55;;;13.30;99.90;;;;;;5078607;28;20127;-78
2021/08/25 03:05:44;;;;;;;11.75;8.45;;;13.40;99.90;;;;;;5052133;28;20055;-77
2021/08/25 03:08:09;;;;;;;12.27;8.00;;;13.30;99.90;;;;;;5067066;28;20044;-78
2021/08/25 03:10:36;;;;;;;11.98;8.43;;;13.30;99.90;;;;;;5052821;28;20147;-78
2021/08/25 03:13:02;;;;;;;19.90;11.35;;;13.30;99.90;;;;;;5071897;28;20040;-78
2021/08/25 03:15:27;;;;;;;15.07;10.48;;;13.40;99.90;;;;;;5053324;28;20048;-78
2021/08/25 03:17:53;;;;;;;13.98;9.63;;;13.40;99.90;;;;;;5070922;28;20036;-79
2021/08/25 03:20:19;;;;;;;15.75;9.85;;;13.40;99.90;;;;;;5068139;28;20036;-78
2021/08/25 03:22:44;;;;;;;13.57;9.73;;;13.50;99.90;;;;;;5065505;28;20036;-79
2021/08/25 03:25:10;;;;;;;9.60;8.20;;;13.50;99.90;;;;;;5064319;28;20052;-78
2021/08/25 03:27:37;;;;;;;10.02;7.10;;;13.50;99.90;;;;;;5049072;28;20051;-79
2021/08/25 03:30:04;;;;;;;8.48;6.38;;;13.50;99.90;;;;;;5065397;28;20036;-79
2021/08/25 03:32:30;;;;;;;8.68;5.93;;;13.40;99.90;;;;;;5053803;28;20050;-78
2021/08/25 03:34:55;;;;;;;8.93;6.00;;;13.40;99.90;;;;;;5050683;28;20032;-78
2021/08/25 03:37:21;;;;;;;7.45;5.43;;;13.40;99.90;;;;;;5068778;28;20047;-79
2021/08/25 03:39:47;;;;;;;11.25;5.50;;;13.30;99.90;;;;;;5050562;28;20483;-78
2021/08/25 03:42:13;;;;;;;12.00;6.78;;;13.30;99.90;;;;;;5064331;28;20057;-78
2021/08/25 03:44:39;;;;;;;7.43;5.10;;;13.20;99.90;;;;;;5049003;28;20050;-78
2021/08/25 03:47:06;;;;;;;6.90;5.05;;;13.20;99.90;;;;;;5067605;28;20082;-79
2021/08/25 03:49:33;;;;;;;8.18;4.97;;;13.20;99.90;;;;;;5065161;28;20131;-79
2021/08/25 03:51:58;;;;;;;8.52;4.88;;;13.10;99.90;;;;;;5065351;28;20040;-79
2021/08/25 03:54:24;;;;;;;7.05;5.63;;;13.20;99.90;;;;;;5050448;28;20052;-78
2021/08/25 03:56:50;;;;;;;13.63;6.15;;;13.10;99.90;;;;;;5044427;28;20037;-78
2021/08/25 03:59:15;;;;;;;6.57;5.30;;;13.00;99.90;;;;;;5064629;28;20048;-78
2021/08/25 04:01:41;;;;;;;10.55;7.55;;;13.00;99.90;;;;;;5048775;28;20364;-78
2021/08/25 04:04:08;;;;;;;7.78;5.65;;;13.00;99.90;;;;;;5047881;28;20090;-77
2021/08/25 04:06:38;;;;;;;6.22;5.22;;;13.00;99.90;;;;;;5063555;28;20421;-79
2021/08/25 04:09:04;;;;;;;6.97;4.88;;;12.90;99.90;;;;;;5060943;28;20543;-79
2021/08/25 04:11:31;;;;;;;7.15;5.53;;;12.90;99.90;;;;;;5048005;28;20040;-78
2021/08/25 04:13:57;;;;;;;7.85;5.40;;;12.90;99.90;;;;;;5066588;28;20078;-79
2021/08/25 04:16:23;;;;;;;9.63;5.30;;;12.90;99.90;;;;;;5064991;28;20055;-78
2021/08/25 04:18:49;;;;;;;6.95;5.47;;;12.80;99.90;;;;;;5068012;28;20048;-79
2021/08/25 04:21:14;;;;;;;7.63;5.05;;;12.80;99.90;;;;;;5066617;28;20111;-79
2021/08/25 04:23:41;;;;;;;7.93;5.20;;;12.80;99.90;;;;;;5048429;28;20039;-78
2021/08/25 04:26:07;;;;;;;8.93;5.03;;;12.70;99.90;;;;;;5064625;28;20053;-78
2021/08/25 04:28:32;;;;;;;6.93;4.63;;;12.80;99.90;;;;;;5068050;28;20040;-78
2021/08/25 04:30:58;;;;;;;6.43;4.80;;;12.70;99.90;;;;;;5065800;28;20032;-79
2021/08/25 04:33:24;;;;;;;8.88;5.25;;;12.70;99.90;;;;;;5050115;28;20048;-78
2021/08/25 04:35:49;;;;;;;8.73;4.85;;;12.60;99.90;;;;;;5067352;28;20049;-78
2021/08/25 04:38:15;;;;;;;9.45;8.23;;;12.60;99.90;;;;;;5061583;28;20110;-78
2021/08/25 04:40:41;;;;;;;14.75;8.73;;;12.80;99.90;;;;;;5065809;28;20043;-79
2021/08/25 04:43:06;;;;;;;15.15;8.65;;;12.80;99.90;;;;;;5071246;28;20064;-79
2021/08/25 04:45:32;;;;;;;8.48;5.57;;;12.80;99.90;;;;;;5050780;28;20066;-78
2021/08/25 04:47:58;;;;;;;9.18;6.28;;;12.90;99.90;;;;;;5064204;28;20048;-78
2021/08/25 04:50:24;;;;;;;11.38;6.53;;;12.90;99.90;;;;;;5068291;28;22021;-78
2021/08/25 04:52:50;;;;;;;8.48;5.70;;;12.90;99.90;;;;;;5068593;28;20044;-79
2021/08/25 04:55:16;;;;;;;9.45;5.53;;;13.00;99.90;;;;;;5051700;28;20067;-79
2021/08/25 04:57:42;;;;;;;13.50;6.30;;;13.00;99.90;;;;;;5066608;28;20094;-78
2021/08/25 05:00:08;;;;;;;11.32;6.82;;;13.20;99.90;;;;;;5061545;28;20428;-78
2021/08/25 05:02:35;;;;;;;7.50;5.57;;;13.20;99.90;;;;;;5063551;28;20045;-78
2021/08/25 05:05:01;;;;;;;6.60;5.53;;;13.30;99.90;;;;;;5061057;28;20452;-79
2021/08/25 05:07:27;;;;;;;6.95;5.50;;;13.30;99.90;;;;;;5061892;28;20033;-82
2021/08/25 05:09:53;;;;;;;9.57;5.40;;;13.40;99.90;;;;;;5066121;28;20044;-78
2021/08/25 05:12:19;;;;;;;7.97;5.90;;;13.50;99.90;;;;;;5063275;28;20044;-78
2021/08/25 05:14:45;;;;;;;8.73;4.95;;;13.50;99.90;;;;;;5047923;28;20041;-78
2021/08/25 05:17:10;;;;;;;7.53;5.68;;;13.60;99.90;;;;;;5040816;28;20098;-78
2021/08/25 05:19:36;;;;;;;6.53;5.20;;;13.70;99.90;;;;;;5060455;28;20069;-79
2021/08/25 05:22:02;;;;;;;8.70;5.30;;;13.70;99.90;;;;;;5042376;28;20051;-78
2021/08/25 05:24:28;;;;;;;9.65;5.45;;;13.70;99.90;;;;;;5040150;28;20045;-78
2021/08/25 05:26:55;;;;;;;9.65;5.40;;;13.80;99.90;;;;;;5049975;28;20066;-78
2021/08/25 05:29:20;;;;;;;7.10;5.40;;;13.80;99.90;;;;;;5045463;28;20052;-78
2021/08/25 05:31:46;;;;;;;7.10;5.40;;;13.80;99.90;;;;;;5059296;28;20047;-78
2021/08/25 05:34:12;;;;;;;9.15;5.78;;;13.80;99.90;;;;;;5051970;28;20044;-78
2021/08/25 05:36:39;;;;;;;8.93;6.15;;;13.90;99.90;;;;;;5051093;28;20078;-78
2021/08/25 05:39:05;;;;;;;12.75;7.35;;;13.90;99.90;;;;;;5052771;28;20133;-78
2021/08/25 05:41:30;;;;;;;11.50;7.03;;;14.00;99.90;;;;;;5068398;28;20405;-78
2021/08/25 05:43:56;;;;;;;10.57;7.28;;;14.10;99.90;;;;;;5052694;28;20028;-78
2021/08/25 05:46:22;;;;;;;11.73;6.80;;;14.10;99.90;;;;;;5071305;28;20036;-78
2021/08/25 05:48:47;;;;;;;15.73;7.72;;;14.20;99.90;;;;;;5067295;28;20039;-78
2021/08/25 05:51:13;;;;;;;15.10;7.65;;;14.20;99.90;;;;;;5051503;28;20094;-79
2021/08/25 05:53:39;;;;;;;18.58;8.85;;;14.30;99.90;;;;;;5051208;28;20372;-79
2021/08/25 05:56:04;;;;;;;16.80;8.15;;;14.30;99.90;;;;;;5048140;28;20032;-79
2021/08/25 05:58:30;;;;;;;9.95;7.50;;;14.40;99.90;;;;;;5050168;28;20471;-78
2021/08/25 06:00:56;;;;;;;18.20;8.35;;;14.40;99.90;;;;;;5067540;28;20059;-77
2021/08/25 06:03:21;;;;;;;12.70;7.03;;;14.50;99.90;;;;;;5048544;28;20048;-78
2021/08/25 06:05:51;;;;;;;17.13;8.38;;;14.60;99.90;;;;;;5061541;28;20094;-79
2021/08/25 06:08:16;;;;;;;11.32;6.97;;;14.60;99.90;;;;;;5053231;28;20096;-78
2021/08/25 06:10:42;;;;;;;13.45;6.63;;;14.70;99.90;;;;;;5069288;28;20096;-78
2021/08/25 06:13:07;;;;;;;14.55;7.63;;;14.70;99.90;;;;;;5051864;28;20056;-78
2021/08/25 06:15:33;;;;;;;17.30;6.93;;;14.80;99.90;;;;;;5068324;28;20120;-79
2021/08/25 06:17:59;;;;;;;12.63;7.15;;;14.80;99.90;;;;;;5067322;28;20033;-78
2021/08/25 06:20:24;;;;;;;10.80;6.72;;;14.90;99.90;;;;;;5040131;28;20032;-79
2021/08/25 06:22:50;;;;;;;11.43;7.28;;;14.90;99.90;;;;;;5059989;28;20166;-78
2021/08/25 06:25:16;;;;;;;15.70;6.90;;;15.00;99.90;;;;;;5049352;28;20371;-78
2021/08/25 06:27:41;;;;;;;11.07;6.85;;;15.00;99.90;;;;;;5069747;28;20067;-79
2021/08/25 06:30:07;;;;;;;19.02;7.53;;;15.00;99.90;;;;;;5049328;28;20071;-79
2021/08/25 06:32:33;;;;;;;12.32;6.70;;;15.10;99.90;;;;;;5052815;28;20048;-79
2021/08/25 06:34:59;;;;;;;9.90;6.72;;;15.10;99.90;;;;;;5064433;28;20036;-78
2021/08/25 06:37:25;;;;;;;11.88;6.43;;;15.10;99.90;;;;;;5041982;28;20041;-79
2021/08/25 06:39:51;;;;;;;27.05;5.53;;;15.10;99.90;;;;;;5038815;28;20047;-78
2021/08/25 06:42:16;;;;;;;12.10;3.85;;;15.40;99.90;;;;;;5054145;28;20032;-79
2021/08/25 06:44:42;;;;;;;6.25;3.67;;;15.60;99.90;;;;;;5046909;28;20056;-79
2021/08/25 06:47:08;;;;;;;7.53;4.45;;;15.70;99.90;;;;;;5064615;28;20045;-79
2021/08/25 06:49:33;;;;;;;12.05;4.50;;;16.00;99.90;;;;;;5067541;28;20072;-79
2021/08/25 06:51:59;;;;;;;10.38;4.57;;;16.00;99.90;;;;;;5068887;28;20040;-78
2021/08/25 06:54:25;;;;;;;5.32;2.90;;;16.10;99.90;;;;;;5050662;28;20059;-77
2021/08/25 06:56:50;;;;;;;8.20;5.00;;;16.10;99.90;;;;;;5049759;28;20067;-78
2021/08/25 06:59:16;;;;;;;10.68;5.30;;;16.10;99.90;;;;;;5067393;28;20041;-78
2021/08/25 07:01:42;;;;;;;9.10;4.50;;;16.20;99.90;;;;;;5069478;28;20384;-79
2021/08/25 07:04:08;;;;;;;10.77;5.20;;;16.30;99.90;;;;;;5067335;28;20075;-79
2021/08/25 07:06:33;;;;;;;12.05;5.10;;;16.30;99.90;;;;;;5047310;28;20076;-78
2021/08/25 07:08:59;;;;;;;9.93;4.90;;;16.30;99.90;;;;;;5051846;28;20589;-77
2021/08/25 07:11:25;;;;;;;15.05;4.85;;;16.30;99.90;;;;;;5069647;28;20459;-78
2021/08/25 07:13:50;;;;;;;8.63;3.67;;;16.50;99.90;;;;;;5063119;28;20043;-78
2021/08/25 07:16:16;;;;;;;7.47;4.47;;;16.60;99.90;;;;;;5040705;28;20041;-79
2021/08/25 07:18:47;;;;;;;6.95;4.50;;;16.60;99.90;;;;;;5042005;28;20052;-79
2021/08/25 07:21:13;;;;;;;10.35;4.30;;;16.70;99.90;;;;;;5062495;28;20435;-78
2021/08/25 07:23:39;;;;;;;11.25;3.78;;;16.70;99.90;;;;;;5059716;28;20041;-78
2021/08/25 07:26:05;;;;;;;6.68;3.60;;;16.80;99.90;;;;;;5052427;28;20470;-78
2021/08/25 07:28:31;;;;;;;11.73;4.95;;;16.80;99.90;;;;;;5049715;28;20541;-78
2021/08/25 07:30:57;;;;;;;10.10;5.15;;;16.80;99.90;;;;;;5055619;28;20059;-78
2021/08/25 07:33:23;;;;;;;11.38;3.50;;;16.80;99.90;;;;;;5048499;28;20053;-78
2021/08/25 07:35:49;;;;;;;11.80;4.60;;;17.00;99.90;;;;;;5064538;28;20056;-81
2021/08/25 07:38:15;;;;;;;7.28;4.72;;;16.90;99.90;;;;;;5046313;28;20175;-80
2021/08/25 07:40:42;;;;;;;10.25;4.30;;;16.80;99.90;;;;;;5041182;28;20152;-78
2021/08/25 07:43:08;;;;;;;10.70;4.80;;;16.80;99.90;;;;;;5053696;28;20163;-78
2021/08/25 07:45:36;;;;;;;8.38;4.40;;;16.90;99.90;;;;;;5068954;28;20041;-78
2021/08/25 07:48:02;;;;;;;8.50;4.18;;;16.90;99.90;;;;;;5069369;28;20061;-78
2021/08/25 07:50:28;;;;;;;6.20;3.38;;;17.00;99.90;;;;;;5064330;28;20155;-77
2021/08/25 07:52:53;;;;;;;11.05;4.15;;;17.20;99.90;;;;;;5044429;28;20617;-77
2021/08/25 07:55:19;;;;;;;6.97;3.67;;;17.30;99.90;;;;;;5055590;28;20048;-78
2021/08/25 07:57:44;;;;;;;9.10;2.55;;;17.30;99.90;;;;;;5067945;28;20052;-80
2021/08/25 08:00:11;;;;;;;14.02;3.85;;;17.40;99.90;;;;;;5069303;28;20384;-77
2021/08/25 08:02:36;;;;;;;6.43;3.58;;;17.60;99.90;;;;;;5070072;28;20428;-79
2021/08/25 08:05:04;;;;;;;4.60;3.35;;;17.70;99.90;;;;;;5069280;28;20150;-77
2021/08/25 08:07:30;;;;;;;7.75;3.58;;;17.70;99.90;;;;;;5069377;28;20095;-79
2021/08/25 08:09:55;;;;;;;12.88;3.40;;;17.70;99.90;;;;;;5069031;28;20067;-78
2021/08/25 08:12:21;;;;;;;4.88;2.40;;;17.70;99.90;;;;;;5068544;28;20048;-79
2021/08/25 08:14:47;;;;;;;3.65;1.38;;;17.80;99.90;;;;;;5065317;28;20149;-77
2021/08/25 08:17:13;;;;;;;8.10;1.30;;;17.70;99.90;;;;;;5065930;28;20068;-78
2021/08/25 08:19:39;;;;;;;5.43;1.20;;;17.60;99.90;;;;;;5048353;28;20170;-78
2021/08/25 08:22:04;;;;;;;3.55;1.35;;;17.70;99.90;;;;;;5066351;28;20052;-78
2021/08/25 08:24:30;;;;;;;4.25;1.25;;;18.00;99.90;;;;;;5049017;28;20102;-78
2021/08/25 08:26:58;;;;;;;3.78;0.88;;;18.10;99.90;;;;;;5066733;28;20040;-78
2021/08/25 08:29:23;;;;;;;1.25;0.60;;;18.10;99.90;;;;;;5049537;28;20056;-78
2021/08/25 08:31:49;;;;;;;1.38;0.75;;;18.00;99.90;;;;;;5049937;28;20063;-77
2021/08/25 08:34:15;;;;;;;2.40;0.70;;;17.90;99.90;;;;;;5067993;28;20044;-77
2021/08/25 08:36:41;;;;;;;1.50;0.80;;;17.80;99.90;;;;;;5066494;28;20139;-77
2021/08/25 08:39:06;;;;;;;0.60;0.57;;;17.90;99.90;;;;;;5052235;28;20380;-78
2021/08/25 08:41:32;;;;;;;1.30;0.50;;;18.10;99.90;;;;;;5062896;28;20495;-81
2021/08/25 08:43:58;;;;;;;2.70;0.70;;;18.20;99.90;;;;;;5050173;28;20041;-79
2021/08/25 08:46:24;;;;;;;5.57;0.50;;;18.30;99.90;;;;;;5066667;28;20057;-78
2021/08/25 08:48:51;;;;;;;1.20;0.55;;;18.20;99.90;;;;;;5065439;28;20045;-79
2021/08/25 08:51:25;;;;;;;1.08;0.60;;;18.20;99.90;;;;;;5048853;28;20055;-81
2021/08/25 08:53:52;;;;;;;2.80;0.60;;;18.10;99.90;;;;;;5049484;28;20110;-78
2021/08/25 08:56:19;;;;;;;2.35;0.70;;;18.00;99.90;;;;;;5064149;28;20438;-77
2021/08/25 08:58:45;;;;;;;2.25;0.90;;;18.00;99.90;;;;;;5065576;28;20140;-80
2021/08/25 09:01:11;;;;;;;2.15;0.80;;;17.90;99.90;;;;;;5065471;28;20487;-79
2021/08/25 09:03:41;;;;;;;2.25;0.70;;;18.00;99.90;;;;;;5066205;28;20459;-77
2021/08/25 09:06:08;;;;;;;2.38;0.60;;;18.00;99.90;;;;;;5049176;28;20036;-79
2021/08/25 09:08:37;;;;;;;2.97;0.55;;;18.00;99.90;;;;;;5048681;28;20048;-79
2021/08/25 09:11:09;;;;;;;1.40;0.55;;;18.00;99.90;;;;;;5066584;28;20106;-78
2021/08/25 09:13:48;;;;;;;2.35;0.70;;;18.10;99.90;;;;;;5065217;28;20048;-79
2021/08/25 09:16:25;;;;;;;1.27;0.60;;;18.20;99.90;;;;;;5048273;28;20102;-79
2021/08/25 09:19:08;;;;;;;1.67;0.60;;;18.50;99.90;;;;;;5049675;28;20514;-78
2021/08/25 09:21:36;;;;;;;2.45;0.57;;;18.30;99.90;;;;;;5048495;28;20044;-78
2021/08/25 09:24:05;;;;;;;2.90;0.60;;;18.50;99.90;;;;;;5066755;28;20048;-78
2021/08/25 09:26:31;;;;;;;0.50;0.50;;;18.90;99.90;;;;;;5049927;28;20059;-78
2021/08/25 09:29:15;;;;;;;2.33;0.60;;;18.90;99.90;;;;;;5049922;28;20988;-78
2021/08/25 09:31:49;;;;;;;1.60;0.50;;;18.90;99.90;;;;;;5049563;28;20476;-79
2021/08/25 09:34:27;;;;;;;2.38;0.57;;;18.80;99.90;;;;;;5065142;28;20513;-79
2021/08/25 09:37:14;;;;;;;1.33;0.60;;;18.80;99.90;;;;;;5066065;28;20349;-79
2021/08/25 09:39:46;;;;;;;8.30;0.65;;;18.60;99.90;;;;;;5047775;28;20396;-78
2021/08/25 09:42:16;;;;;;;0.47;0.40;;;18.80;99.90;;;;;;5064087;28;20048;-79
2021/08/25 09:44:43;;;;;;;0.77;0.50;;;18.90;99.90;;;;;;5065318;28;20083;-77
2021/08/25 09:47:09;;;;;;;1.25;0.50;;;19.00;99.90;;;;;;5065391;28;20403;-79
2021/08/25 09:49:38;;;;;;;2.45;0.60;;;19.00;99.90;;;;;;5064526;28;20066;-79
2021/08/25 09:52:05;;;;;;;1.88;0.60;;;18.90;99.90;;;;;;5049886;28;20072;-76
2021/08/25 09:54:31;;;;;;;0.90;0.70;;;18.90;99.90;;;;;;5049778;28;20055;-77
2021/08/25 09:56:57;;;;;;;2.45;0.80;;;19.00;99.90;;;;;;5043852;28;20064;-76
2021/08/25 09:59:23;;;;;;;2.63;0.70;;;18.90;99.90;;;;;;5062200;28;20052;-77
2021/08/25 10:01:51;;;;;;;0.98;0.63;;;18.80;99.90;;;;;;5067489;28;20422;-78
2021/08/25 10:04:17;;;;;;;2.15;0.70;;;18.70;99.90;;;;;;5067373;28;20048;-76
2021/08/25 10:06:48;;;;;;;2.03;0.95;;;18.80;99.90;;;;;;5068168;28;20182;-77
2021/08/25 10:09:15;;;;;;;1.90;0.90;;;18.80;99.90;;;;;;5050315;28;20575;-78
2021/08/25 10:11:56;;;;;;;3.05;1.00;;;18.60;99.90;;;;;;5049820;28;20145;-77
2021/08/25 10:14:22;;;;;;;1.27;0.68;;;18.70;99.90;;;;;;5067663;28;20044;-77
2021/08/25 10:16:51;;;;;;;3.47;0.70;;;18.90;99.90;;;;;;5050299;28;20052;-77
2021/08/25 10:19:37;;;;;;;3.33;0.73;;;18.90;99.90;;;;;;5048808;28;20041;-77
2021/08/25 10:22:24;;;;;;;3.15;0.68;;;19.00;99.90;;;;;;5047090;28;20045;-79
2021/08/25 10:24:55;;;;;;;1.27;0.63;;;19.10;99.90;;;;;;5067336;28;20064;-77
2021/08/25 10:27:23;;;;;;;0.95;0.50;;;19.10;99.90;;;;;;5067224;28;20064;-77
2021/08/25 10:30:01;;;;;;;2.80;0.40;;;19.10;99.90;;;;;;5065168;28;20102;-76
2021/08/25 10:32:27;;;;;;;1.70;0.60;;;19.00;99.90;;;;;;5052553;28;20052;-76
2021/08/25 10:35:08;;;;;;;1.42;0.40;;;19.10;99.90;;;;;;5068609;28;20130;-77
2021/08/25 10:37:34;;;;;;;0.93;0.60;;;18.90;99.90;;;;;;5051810;28;20040;-77
2021/08/25 10:40:01;;;;;;;0.50;0.50;;;19.00;99.90;;;;;;5051972;28;20049;-77
2021/08/25 10:42:46;;;;;;;1.75;0.60;;;19.00;99.90;;;;;;5052240;28;20057;-75
2021/08/25 10:45:15;;;;;;;0.52;0.50;;;19.00;99.90;;;;;;5065745;28;20480;-76
2021/08/25 10:48:00;;;;;;;2.42;0.50;;;19.40;99.90;;;;;;5055384;28;20395;-75
2021/08/25 10:50:49;;;;;;;;;;;19.40;99.90;;;;;;5055247;28;20076;-79
2021/08/25 10:53:30;;;;;;;2.00;0.70;;;19.60;99.90;;;;;;4990428;28;20373;-80
2021/08/25 10:56:09;;;;;;;1.15;0.47;;;19.70;99.90;;;;;;5004359;28;20053;-80
2021/08/25 10:58:45;;;;;;;0.73;0.40;;;19.70;99.90;;;;;;4997705;28;20508;-80
2021/08/25 11:01:29;;;;;;;1.90;0.30;;;19.80;99.90;;;;;;5013234;28;20049;-79
2021/08/25 11:03:57;;;;;;;0.80;0.30;;;20.10;99.90;;;;;;4997498;28;20473;-78
2021/08/25 11:06:34;;;;;;;0.90;0.30;;;20.00;99.90;;;;;;4991120;28;20076;-78
2021/08/25 11:09:19;;;;;;;1.00;0.30;;;19.80;99.90;;;;;;4993790;28;20049;-79
2021/08/25 11:11:50;;;;;;;5.57;0.50;;;19.70;99.90;;;;;;5014975;28;20095;-78
2021/08/25 11:14:51;;;;;;;1.55;0.60;;;19.60;99.90;;;;;;5011401;28;20053;-79
2021/08/25 11:17:23;;;;;;;1.38;0.50;;;19.40;99.90;;;;;;5009277;28;20108;-79
2021/08/25 11:19:57;;;;;;;2.03;0.50;;;19.10;99.90;;;;;;4994900;28;20515;-78
2021/08/25 11:22:31;;;;;;;2.47;0.73;;;18.90;99.90;;;;;;5010207;28;20482;-79
2021/08/25 11:24:59;;;;;;;4.72;0.70;;;18.90;99.90;;;;;;5010530;28;20307;-78
2021/08/25 11:27:31;;;;;;;1.42;0.52;;;18.70;99.90;;;;;;5010788;28;20496;-79
2021/08/25 11:30:04;;;;;;;4.57;0.50;;;18.60;99.90;;;;;;5026310;28;20091;-79
2021/08/25 11:32:29;;;;;;;5.82;0.60;;;18.60;99.90;;;;;;5068704;28;20048;-79
2021/08/25 11:34:56;;;;;;;3.58;1.20;;;18.50;99.90;;;;;;5067671;28;20059;-79
2021/08/25 11:37:22;;;;;;;1.52;0.60;;;18.50;99.90;;;;;;5050748;28;20033;-80
2021/08/25 11:40:01;;;;;;;4.90;0.75;;;18.30;99.90;;;;;;5068646;28;20051;-78
2021/08/25 11:42:33;;;;;;;2.50;0.68;;;18.20;99.90;;;;;;5069889;28;20043;-78
2021/08/25 11:44:59;;;;;;;3.25;0.68;;;18.20;99.90;;;;;;5070553;28;20049;-78
2021/08/25 11:47:25;;;;;;;4.05;0.80;;;18.30;99.90;;;;;;5053637;28;20063;-78
2021/08/25 11:49:54;;;;;;;4.18;0.90;;;18.40;99.90;;;;;;5069550;28;20379;-79
2021/08/25 11:52:31;;;;;;;4.85;0.85;;;18.50;99.90;;;;;;5069411;28;20070;-78
2021/08/25 11:55:00;;;;;;;3.88;0.93;;;18.40;99.90;;;;;;5053305;28;20060;-79
2021/08/25 11:57:44;;;;;;;3.55;0.90;;;18.50;99.90;;;;;;5066268;28;20159;-79
2021/08/25 12:00:11;;;;;;;3.88;0.70;;;18.70;99.90;;;;;;5069257;28;20050;-79
2021/08/25 12:02:53;;;;;;;1.60;0.70;;;18.80;99.90;;;;;;5069803;28;20048;-78
2021/08/25 12:05:25;;;;;;;2.15;0.85;;;19.00;99.90;;;;;;5052886;28;20052;-78
2021/08/25 12:08:02;;;;;;;2.90;0.70;;;19.40;99.90;;;;;;5070019;28;20160;-78
2021/08/25 12:10:29;;;;;;;1.55;0.80;;;19.40;99.90;;;;;;5051387;28;20399;-78
2021/08/25 12:12:58;;;;;;;7.30;1.05;;;19.50;99.90;;;;;;5053378;28;20083;-78
2021/08/25 12:15:47;;;;;;;1.85;1.05;;;19.60;99.90;;;;;;5069302;28;20135;-79
2021/08/25 12:18:14;;;;;;;5.82;1.13;;;19.60;99.90;;;;;;5069749;28;20105;-79
2021/08/25 12:20:42;;;;;;;2.35;0.70;;;19.60;99.90;;;;;;5051655;28;20068;-78
2021/08/25 12:23:10;;;;;;;4.32;0.80;;;19.60;99.90;;;;;;5053359;28;20467;-79
2021/08/25 12:25:43;;;;;;;7.20;0.75;;;19.60;99.90;;;;;;5068072;28;20066;-78
2021/08/25 12:28:14;;;;;;;3.40;0.90;;;19.40;99.90;;;;;;5069646;28;20075;-78
2021/08/25 12:30:42;;;;;;;6.68;0.82;;;19.40;99.90;;;;;;5068678;28;20060;-78
2021/08/25 12:33:10;;;;;;;5.55;0.90;;;19.00;99.90;;;;;;5069634;28;20056;-78
2021/08/25 12:35:39;;;;;;;2.22;1.10;;;18.90;99.90;;;;;;5068865;28;20055;-78
2021/08/25 12:38:06;;;;;;;3.40;1.05;;;18.70;99.90;;;;;;5069254;28;20048;-78
2021/08/25 12:40:33;;;;;;;3.70;1.20;;;18.70;99.90;;;;;;5051611;28;20044;-79
2021/08/25 12:42:59;;;;;;;3.25;1.17;;;18.70;99.90;;;;;;5068605;28;20055;-78
2021/08/25 12:45:27;;;;;;;7.05;1.25;;;18.70;99.90;;;;;;5068831;28;20572;-78